Time;durP1;ratioP1;P1;durP2;ratioP2;P2;SDS_P1;SDS_P2;PMS_P1;PMS_P2;Temp;Humidity;BMP_temperature;BMP_pressure;BME280_temperature;BME280_humidity;BME280_pressure;Samples;Min_cycle;Max_cycle;Signal;HPM_P1;HPM_P2
2023/11/03 00:00:09;;;;;;;;;;;;;;;-144.99;91.12;52537.78;5098589;27;20393;-64
2023/11/03 00:02:35;;;;;;;;;;;;;;;-144.99;90.98;52529.63;5102992;27;19928;-65
2023/11/03 00:05:04;;;;;;;;;;;;;;;-144.99;91.06;52554.09;5093745;27;20480;-65
2023/11/03 00:07:33;;;;;;;;;;;;;;;-144.99;91.19;52513.31;5095209;28;19938;-65
2023/11/03 00:10:00;;;;;;;;;;;;;;;-144.99;91.42;52541.84;5096234;27;19986;-65
2023/11/03 00:12:27;;;;;;;;;;;;;;;-144.99;91.56;52547.97;5096989;28;19955;-65
2023/11/03 00:14:53;;;;;;;;;;;;;;;-144.99;91.41;52570.38;5097470;28;20051;-73
2023/11/03 00:17:20;;;;;;;;;;;;;;;-144.99;91.46;52554.09;5098652;28;19928;-73
2023/11/03 00:19:47;;;;;;;;;;;;;;;-144.99;91.39;52543.91;5096619;27;19928;-71
2023/11/03 00:22:13;;;;;;;;;;;;;;;-144.99;91.09;52517.41;5098456;28;19955;-74
2023/11/03 00:24:42;;;;;;;;;;;;;;;-144.99;90.88;52529.63;5101498;28;19988;-75
2023/11/03 00:27:08;;;;;;;;;;;;;;;-144.99;90.63;52521.47;5107431;28;19970;-77
2023/11/03 00:29:35;;;;;;;;;;;;;;;-144.99;90.69;52525.56;5104680;28;19931;-77
2023/11/03 00:32:03;;;;;;;;;;;;;;;-144.99;90.50;52547.97;5102563;28;20450;-76
2023/11/03 00:34:29;;;;;;;;;;;;;;;-144.99;90.67;52541.84;5108787;27;20085;-65
2023/11/03 00:36:56;;;;;;;;;;;;;;;-144.99;90.90;52509.25;5101480;28;19954;-64
2023/11/03 00:39:22;;;;;;;;;;;;;;;-144.99;91.02;52545.94;5096579;28;19957;-65
2023/11/03 00:41:51;;;;;;;;;;;;;;;-144.99;90.81;52572.44;5097969;28;20030;-68
2023/11/03 00:44:18;;;;;;;;;;;;;;;-144.99;90.87;52505.16;5099896;28;19956;-68
2023/11/03 00:46:45;;;;;;;;;;;;;;;-144.99;90.44;52533.69;5096701;28;20410;-68
2023/11/03 00:49:13;;;;;;;;;;;;;;;-144.99;90.44;52531.66;5097026;28;20094;-67
2023/11/03 00:51:40;;;;;;;;;;;;;;;-144.99;90.83;52541.84;5098035;28;20011;-66
2023/11/03 00:54:07;;;;;;;;;;;;;;;-144.99;90.72;52525.56;5100927;27;19960;-66
2023/11/03 00:56:35;;;;;;;;;;;;;;;-144.99;90.70;52558.16;5100760;27;20470;-66
2023/11/03 00:59:04;;;;;;;;;;;;;;;-144.99;90.92;52550.00;5112414;27;19973;-72
2023/11/03 01:01:31;;;;;;;;;;;;;;;-144.99;90.91;52574.47;5115171;27;19948;-72
2023/11/03 01:03:58;;;;;;;;;;;;;;;-144.99;91.18;52574.47;5106377;27;19975;-72
2023/11/03 01:06:24;;;;;;;;;;;;;;;-144.99;91.31;52541.84;5106333;27;19978;-72
2023/11/03 01:08:51;;;;;;;;;;;;;;;-144.99;91.33;52529.63;5103709;27;19954;-71
2023/11/03 01:11:18;;;;;;;;;;;;;;;-144.99;91.13;52552.03;5101939;28;19944;-72
2023/11/03 01:13:45;;;;;;;;;;;;;;;-144.99;91.33;52554.09;5112972;27;19949;-72
2023/11/03 01:16:13;;;;;;;;;;;;;;;-144.99;91.32;52550.00;5109188;27;19938;-71
2023/11/03 01:18:40;;;;;;;;;;;;;;;-144.99;91.68;52533.69;5107842;28;19943;-71
2023/11/03 01:21:12;;;;;;;;;;;;;;;-144.99;91.51;52545.94;5105745;28;20035;-71
2023/11/03 01:23:41;;;;;;;;;;;;;;;-144.99;91.51;52562.25;5104338;27;19949;-70
2023/11/03 01:26:07;;;;;;;;;;;;;;;-144.99;91.33;52517.41;5101275;27;20497;-70
2023/11/03 01:28:34;;;;;;;;;;;;;;;-144.99;91.51;52564.28;5110866;27;20024;-71
2023/11/03 01:31:00;;;;;;;;;;;;;;;-144.99;91.58;52529.63;5102494;27;21020;-71
2023/11/03 01:33:28;;;;;;;;;;;;;;;-144.99;91.71;52541.84;5103253;27;19935;-71
2023/11/03 01:35:55;;;;;;;;;;;;;;;-144.99;92.21;52537.78;5099791;27;20382;-70
2023/11/03 01:38:21;;;;;;;;;;;;;;;-144.99;91.97;52550.00;5103200;27;19960;-71
2023/11/03 01:40:48;;;;;;;;;;;;;;;-144.99;92.35;52541.84;5102186;27;20046;-71
2023/11/03 01:43:14;;;;;;;;;;;;;;;-144.99;92.19;52566.31;5107478;27;20163;-70
2023/11/03 01:45:41;;;;;;;;;;;;;;;-144.99;92.40;52499.06;5116292;27;20000;-71
2023/11/03 01:48:08;;;;;;;;;;;;;;;-144.99;92.33;52550.00;5105209;27;20816;-72
2023/11/03 01:50:36;;;;;;;;;;;;;;;-144.99;92.30;52545.94;5105327;27;19928;-70
2023/11/03 01:53:03;;;;;;;;;;;;;;;-144.99;92.41;52533.69;5101577;27;20175;-69
2023/11/03 01:55:30;;;;;;;;;;;;;;;-144.99;92.47;52554.09;5100047;27;20380;-69
2023/11/03 01:57:58;;;;;;;;;;;;;;;-144.99;92.29;52564.28;5097629;27;19927;-68
2023/11/03 02:00:24;;;;;;;;;;;;;;;-144.99;92.65;52503.13;5098872;28;19934;-70
2023/11/03 02:02:53;;;;;;;;;;;;;;;-144.99;92.37;52574.47;5100491;27;20095;-70
2023/11/03 02:05:20;;;;;;;;;;;;;;;-144.99;92.58;52582.63;5106624;28;20006;-69
2023/11/03 02:07:48;;;;;;;;;;;;;;;-144.99;92.70;52525.56;5102128;27;20532;-75
2023/11/03 02:10:14;;;;;;;;;;;;;;;-144.99;92.74;52513.31;5100894;28;20702;-76
2023/11/03 02:12:41;;;;;;;;;;;;;;;-144.99;92.83;52533.69;5101577;27;20295;-75
2023/11/03 02:15:08;;;;;;;;;;;;;;;-144.99;93.10;52537.78;5110177;27;20023;-75
2023/11/03 02:17:35;;;;;;;;;;;;;;;-144.99;92.98;52570.38;5100701;27;20407;-73
2023/11/03 02:20:06;;;;;;;;;;;;;;;-144.99;93.38;52554.09;5098496;27;20033;-72
2023/11/03 02:22:32;;;;;;;;;;;;;;;-144.99;93.30;52562.25;5099646;28;19936;-72
2023/11/03 02:25:00;;;;;;;;;;;;;;;-144.99;93.25;52598.94;5103470;27;20018;-64
2023/11/03 02:27:27;;;;;;;;;;;;;;;-144.99;93.39;52574.47;5098759;27;19976;-63
2023/11/03 02:29:54;;;;;;;;;;;;;;;-144.99;93.06;52550.00;5100251;27;20018;-64
2023/11/03 02:32:20;;;;;;;;;;;;;;;-144.99;92.87;52570.38;5102019;27;20423;-62
2023/11/03 02:34:47;;;;;;;;;;;;;;;-144.99;92.86;52537.78;5099776;28;19993;-62
2023/11/03 02:37:13;;;;;;;;;;;;;;;-144.99;92.80;52574.47;5098921;27;19998;-62
2023/11/03 02:39:40;;;;;;;;;;;;;;;-144.99;92.73;52552.03;5099544;28;19942;-68
2023/11/03 02:42:08;;;;;;;;;;;;;;;-144.99;92.71;52562.25;5103332;28;20038;-70
2023/11/03 02:44:36;;;;;;;;;;;;;;;-144.99;92.68;52554.09;5110713;27;20462;-69
2023/11/03 02:47:03;;;;;;;;;;;;;;;-144.99;92.71;52545.94;5102061;28;19928;-69
2023/11/03 02:49:30;;;;;;;;;;;;;;;-144.99;92.71;52556.13;5119065;27;19927;-69
2023/11/03 02:51:57;;;;;;;;;;;;;;;-144.99;92.62;52552.03;5110184;27;20024;-69
2023/11/03 02:54:24;;;;;;;;;;;;;;;-144.99;92.47;52550.00;5118019;27;19950;-70
2023/11/03 02:56:50;;;;;;;;;;;;;;;-144.99;92.49;52584.66;5108188;27;19939;-70
2023/11/03 02:59:19;;;;;;;;;;;;;;;-144.99;92.27;52511.28;5112268;27;19924;-70
2023/11/03 03:01:46;;;;;;;;;;;;;;;-144.99;92.45;52568.34;5115430;27;20259;-69
2023/11/03 03:04:12;;;;;;;;;;;;;;;-144.99;92.31;52564.28;5104266;27;19975;-69
2023/11/03 03:06:42;;;;;;;;;;;;;;;-144.99;92.33;52562.25;5101933;27;20361;-69
2023/11/03 03:09:08;;;;;;;;;;;;;;;-144.99;92.10;52554.09;5098549;27;19960;-69
2023/11/03 03:11:34;;;;;;;;;;;;;;;-144.99;91.87;52574.47;5097594;27;20407;-69
2023/11/03 03:14:01;;;;;;;;;;;;;;;-144.99;92.03;52545.94;5097868;27;20034;-69
2023/11/03 03:16:29;;;;;;;;;;;;;;;-144.99;91.98;52554.09;5099083;27;20041;-69
2023/11/03 03:18:55;;;;;;;;;;;;;;;-144.99;91.81;52562.25;5112505;27;20021;-69
2023/11/03 03:21:22;;;;;;;;;;;;;;;-144.99;92.37;52615.25;5111729;27;19936;-74
2023/11/03 03:23:48;;;;;;;;;;;;;;;-144.99;92.09;52566.31;5106641;28;20029;-74
2023/11/03 03:26:15;;;;;;;;;;;;;;;-144.99;92.19;52541.84;5103562;27;20407;-74
2023/11/03 03:28:41;;;;;;;;;;;;;;;-144.99;92.29;52586.69;5113968;27;19944;-74
2023/11/03 03:31:08;;;;;;;;;;;;;;;-144.99;92.32;52554.09;5108759;27;20015;-74
2023/11/03 03:33:36;;;;;;;;;;;;;;;-144.99;92.13;52566.31;5102135;28;20008;-78
2023/11/03 03:36:02;;;;;;;;;;;;;;;-144.99;92.12;52562.25;5099611;28;19932;-78
2023/11/03 03:38:29;;;;;;;;;;;;;;;-144.99;92.10;52543.91;5101233;27;19945;-78
2023/11/03 03:40:55;;;;;;;;;;;;;;;-144.99;91.77;52572.44;5100287;28;19935;-62
2023/11/03 03:43:22;;;;;;;;;;;;;;;-144.99;91.81;52574.47;5106915;27;20371;-64
2023/11/03 03:45:48;;;;;;;;;;;;;;;-144.99;91.87;52525.56;5107865;27;20032;-63
2023/11/03 03:48:15;;;;;;;;;;;;;;;-144.99;91.76;52501.09;5102490;27;21633;-64
2023/11/03 03:50:43;;;;;;;;;;;;;;;-144.99;91.60;52547.97;5101662;27;20365;-65
2023/11/03 03:53:09;;;;;;;;;;;;;;;-144.99;91.53;52547.97;5100626;27;20044;-64
2023/11/03 03:55:36;;;;;;;;;;;;;;;-144.99;91.91;52572.44;5079081;27;20053;-67
2023/11/03 03:58:02;;;;;;;;;;;;;;;-144.99;92.10;52594.84;5099720;27;19978;-67
2023/11/03 04:00:29;;;;;;;;;;;;;;;-144.99;91.86;52537.78;5107045;27;19953;-68
2023/11/03 04:02:55;;;;;;;;;;;;;;;-144.99;91.80;52578.53;5098119;27;19966;-68
2023/11/03 04:05:22;;;;;;;;;;;;;;;-144.99;91.69;52586.69;5100407;27;20010;-68
2023/11/03 04:07:49;;;;;;;;;;;;;;;-144.99;91.59;52574.47;5102407;28;19939;-64
2023/11/03 04:10:16;;;;;;;;;;;;;;;-144.99;91.28;52537.78;5098955;27;19938;-67
2023/11/03 04:12:42;;;;;;;;;;;;;;;-144.99;91.47;52541.84;5103649;28;20381;-66
2023/11/03 04:15:09;;;;;;;;;;;;;;;-144.99;90.87;52550.00;5095681;28;19977;-65
2023/11/03 04:17:36;;;;;;;;;;;;;;;-144.99;90.72;52543.91;5097014;28;19979;-66
2023/11/03 04:20:04;;;;;;;;;;;;;;;-144.99;90.39;52537.78;5097142;27;20018;-65
2023/11/03 04:22:30;;;;;;;;;;;;;;;-144.99;90.18;52570.38;5100603;28;19981;-66
2023/11/03 04:24:58;;;;;;;;;;;;;;;-144.99;90.13;52541.84;5110318;28;19993;-66
2023/11/03 04:27:24;;;;;;;;;;;;;;;-144.99;89.77;52586.69;5104622;28;19987;-66
2023/11/03 04:29:51;;;;;;;;;;;;;;;-144.99;90.03;52545.94;5101123;28;20046;-69
2023/11/03 04:32:17;;;;;;;;;;;;;;;-144.99;90.51;52545.94;5096526;28;20416;-68
2023/11/03 04:34:44;;;;;;;;;;;;;;;-144.99;90.84;52541.84;5095780;28;20006;-68
2023/11/03 04:37:10;;;;;;;;;;;;;;;-144.99;91.18;52590.78;5098602;28;20026;-69
2023/11/03 04:39:37;;;;;;;;;;;;;;;-144.99;91.04;52578.53;5103038;27;20018;-65
2023/11/03 04:42:05;;;;;;;;;;;;;;;-144.99;91.25;52541.84;5096787;28;19970;-64
2023/11/03 04:44:31;;;;;;;;;;;;;;;-144.99;91.17;52558.16;5108350;28;19983;-66
2023/11/03 04:46:58;;;;;;;;;;;;;;;-144.99;91.20;52545.94;5108878;28;19986;-63
2023/11/03 04:49:24;;;;;;;;;;;;;;;-144.99;91.43;52550.00;5116149;28;19980;-64
2023/11/03 04:51:51;;;;;;;;;;;;;;;-144.99;91.39;52566.31;5109593;28;19928;-64
2023/11/03 04:54:17;;;;;;;;;;;;;;;-144.99;91.23;52529.63;5115109;28;20027;-64
2023/11/03 04:56:44;;;;;;;;;;;;;;;-144.99;91.19;52529.63;5106085;28;20023;-65
2023/11/03 04:59:12;;;;;;;;;;;;;;;-144.99;91.40;52558.16;5105494;28;19923;-65
2023/11/03 05:01:39;;;;;;;;;;;;;;;-144.99;91.21;52554.09;5107155;28;19962;-64
2023/11/03 05:04:06;;;;;;;;;;;;;;;-144.99;91.42;52539.81;5104693;28;20027;-64
2023/11/03 05:06:33;;;;;;;;;;;;;;;-144.99;91.50;52574.47;5096072;28;19932;-65
2023/11/03 05:08:59;;;;;;;;;;;;;;;-144.99;91.60;52558.16;5112882;28;19923;-67
2023/11/03 05:11:26;;;;;;;;;;;;;;;-144.99;91.61;52570.38;5115808;28;19988;-67
2023/11/03 05:13:52;;;;;;;;;;;;;;;-144.99;91.71;52547.97;5106023;28;19973;-69
2023/11/03 05:16:20;;;;;;;;;;;;;;;-144.99;92.12;52566.31;5106902;28;20038;-67
2023/11/03 05:18:46;;;;;;;;;;;;;;;-144.99;92.03;52558.16;5109359;28;20008;-68
2023/11/03 05:21:14;;;;;;;;;;;;;;;-144.99;92.04;52566.31;5106869;28;20014;-71
2023/11/03 05:23:41;;;;;;;;;;;;;;;-144.99;92.05;52580.59;5097598;28;19924;-71
2023/11/03 05:26:10;;;;;;;;;;;;;;;-144.99;92.00;52525.56;5093724;28;20050;-64
2023/11/03 05:28:37;;;;;;;;;;;;;;;-144.99;92.19;52554.09;5093389;28;21237;-70
2023/11/03 05:31:03;;;;;;;;;;;;;;;-144.99;92.74;52545.94;5092039;28;20549;-71
2023/11/03 05:33:32;;;;;;;;;;;;;;;-144.99;92.49;52596.88;5104345;28;19932;-70
2023/11/03 05:35:58;;;;;;;;;;;;;;;-144.99;92.56;52578.53;5100660;28;19924;-71
2023/11/03 05:38:25;;;;;;;;;;;;;;;-144.99;92.59;52574.47;5101512;28;20376;-72
2023/11/03 05:40:52;;;;;;;;;;;;;;;-144.99;93.14;52582.63;5103155;27;19931;-72
2023/11/03 05:43:18;;;;;;;;;;;;;;;-144.99;92.57;52578.53;5108393;28;19924;-71
2023/11/03 05:45:45;;;;;;;;;;;;;;;-144.99;92.80;52582.63;5090859;28;19966;-72
2023/11/03 05:48:11;;;;;;;;;;;;;;;-144.99;92.66;52582.63;5110732;22;20333;-72
2023/11/03 05:50:39;;;;;;;;;;;;;;;-144.99;93.10;52517.41;5096430;27;20351;-72
2023/11/03 05:53:06;;;;;;;;;;;;;;;-144.99;92.42;52541.84;5111797;27;19992;-73
2023/11/03 05:55:32;;;;;;;;;;;;;;;-144.99;92.50;52554.09;5112725;27;19927;-74
2023/11/03 05:57:58;;;;;;;;;;;;;;;-144.99;92.91;52562.25;5114959;27;19924;-75
2023/11/03 06:00:28;;;;;;;;;;;;;;;-144.99;92.49;52543.91;5104293;27;19971;-74
2023/11/03 06:02:55;;;;;;;;;;;;;;;-144.99;92.22;52558.16;5101593;27;20033;-72
2023/11/03 06:05:21;;;;;;;;;;;;;;;-144.99;92.19;52566.31;5097161;27;20027;-71
2023/11/03 06:07:49;;;;;;;;;;;;;;;-144.99;92.59;52584.66;5100423;27;20302;-73
2023/11/03 06:10:16;;;;;;;;;;;;;;;-144.99;92.07;52539.81;5102910;28;20470;-74
2023/11/03 06:12:42;;;;;;;;;;;;;;;-144.99;92.05;52541.84;5106248;28;20346;-75
2023/11/03 06:15:09;;;;;;;;;;;;;;;-144.99;91.53;52562.25;5107338;28;20038;-73
2023/11/03 06:17:35;;;;;;;;;;;;;;;-144.99;91.47;52529.63;4400742;27;10000711;-72
2023/11/03 06:20:02;;;;;;;;;;;;;;;-144.99;91.61;52545.94;5105563;28;20716;-75
2023/11/03 06:22:29;;;;;;;;;;;;;;;-144.99;91.32;52545.94;5090008;28;20090;-75
2023/11/03 06:24:57;;;;;;;;;;;;;;;-144.99;91.23;52541.84;5101698;28;20338;-73
2023/11/03 06:27:23;;;;;;;;;;;;;;;-144.99;91.30;52550.00;5100855;27;20027;-72
2023/11/03 06:29:49;;;;;;;;;;;;;;;-144.99;91.32;52525.56;5107860;28;20421;-75
2023/11/03 06:32:16;;;;;;;;;;;;;;;-144.99;91.17;52554.09;5108834;28;20023;-73
2023/11/03 06:34:43;;;;;;;;;;;;;;;-144.99;91.15;52570.38;5110176;28;20406;-73
2023/11/03 06:37:09;;;;;;;;;;;;;;;-144.99;91.11;52554.09;5109753;28;19924;-74
2023/11/03 06:39:36;;;;;;;;;;;;;;;-144.99;91.54;52525.56;5106623;27;20146;-75
2023/11/03 06:42:05;;;;;;;;;;;;;;;-144.99;92.13;52572.44;5110443;28;20451;-74
2023/11/03 06:44:32;;;;;;;;;;;;;;;-144.99;92.19;52558.16;5106127;28;19973;-74
2023/11/03 06:46:59;;;;;;;;;;;;;;;-144.99;92.22;52558.16;5110611;28;20306;-74
2023/11/03 06:49:25;;;;;;;;;;;;;;;-144.99;92.45;52554.09;5113176;28;19959;-75
2023/11/03 06:51:53;;;;;;;;;;;;;;;-144.99;92.56;52545.94;5116126;28;19924;-74
2023/11/03 06:54:19;;;;;;;;;;;;;;;-144.99;92.59;52564.28;5112934;28;20339;-74
2023/11/03 06:56:46;;;;;;;;;;;;;;;-144.99;92.28;52545.94;5107403;27;19934;-76
2023/11/03 06:59:14;;;;;;;;;;;;;;;-144.99;92.33;52570.38;5110068;28;19928;-74
2023/11/03 07:01:41;;;;;;;;;;;;;;;-144.99;92.15;52541.84;5110634;28;20394;-75
2023/11/03 07:04:09;;;;;;;;;;;;;;;-144.99;92.07;52529.63;5109523;28;20374;-73
2023/11/03 07:06:35;;;;;;;;;;;;;;;-144.99;92.16;52545.94;5105405;27;20440;-75
2023/11/03 07:09:02;;;;;;;;;;;;;;;-144.99;92.16;52550.00;5111813;28;19987;-75
2023/11/03 07:11:30;;;;;;;;;;;;;;;-144.99;92.13;52590.78;5110747;28;19991;-74
2023/11/03 07:13:56;;;;;;;;;;;;;;;-144.99;92.34;52566.31;5111087;28;19924;-74
2023/11/03 07:16:24;;;;;;;;;;;;;;;-144.99;92.45;52558.16;5115701;28;19952;-75
2023/11/03 07:18:51;;;;;;;;;;;;;;;-144.99;92.12;52574.47;5130721;28;19939;-75
2023/11/03 07:21:17;;;;;;;;;;;;;;;-144.99;92.03;52513.31;5125331;28;19989;-74
2023/11/03 07:23:43;;;;;;;;;;;;;;;-144.99;91.93;52560.19;5125573;27;19996;-74
2023/11/03 07:26:12;;;;;;;;;;;;;;;-144.99;91.87;52541.84;5109928;27;20011;-73
2023/11/03 07:28:38;;;;;;;;;;;;;;;-144.99;92.07;52566.31;5105664;28;19955;-73
2023/11/03 07:31:10;;;;;;;;;;;;;;;-144.99;91.92;52513.31;5108378;28;19963;-73
2023/11/03 07:33:38;;;;;;;;;;;;;;;-144.99;91.70;52550.00;5107619;28;19939;-73
2023/11/03 07:36:05;;;;;;;;;;;;;;;-144.99;92.00;52558.16;5106572;28;20407;-73
2023/11/03 07:38:32;;;;;;;;;;;;;;;-144.99;91.75;52545.94;5107581;28;20007;-75
2023/11/03 07:40:58;;;;;;;;;;;;;;;-144.99;91.68;52537.78;5108110;28;19928;-72
2023/11/03 07:43:24;;;;;;;;;;;;;;;-144.99;91.57;52541.84;5107521;28;20014;-73
2023/11/03 07:45:51;;;;;;;;;;;;;;;-144.99;91.49;52515.34;5106979;28;20042;-72
2023/11/03 07:48:18;;;;;;;;;;;;;;;-144.99;91.55;52523.50;5105044;27;19951;-73
2023/11/03 07:50:46;;;;;;;;;;;;;;;-144.99;91.26;52558.16;5108121;28;20260;-71
2023/11/03 07:53:12;;;;;;;;;;;;;;;-144.99;91.26;52521.47;5108571;28;19970;-73
2023/11/03 07:55:38;;;;;;;;;;;;;;;-144.99;91.17;52541.84;5102868;28;20463;-73
2023/11/03 07:58:05;;;;;;;;;;;;;;;-144.99;91.54;52615.25;5105867;28;20018;-73
2023/11/03 08:00:32;;;;;;;;;;;;;;;-144.99;91.55;52574.47;5098129;28;19924;-73
2023/11/03 08:02:59;;;;;;;;;;;;;;;-144.99;91.26;52554.09;5107655;28;20355;-73
2023/11/03 08:05:26;;;;;;;;;;;;;;;-144.99;91.06;52558.16;5107693;28;20006;-73
2023/11/03 08:07:54;;;;;;;;;;;;;;;-144.99;91.03;52545.94;5107620;28;19954;-72
2023/11/03 08:10:21;;;;;;;;;;;;;;;-144.99;90.74;52503.13;5109081;28;19927;-74
2023/11/03 08:12:48;;;;;;;;;;;;;;;-144.99;90.73;52515.34;5105811;28;19928;-73
2023/11/03 08:15:14;;;;;;;;;;;;;;;-144.99;90.76;52513.31;5107922;28;19959;-76
2023/11/03 08:17:43;;;;;;;;;;;;;;;-144.99;90.70;52588.75;5107933;28;19941;-74
2023/11/03 08:20:11;;;;;;;;;;;;;;;-144.99;90.90;52505.16;5105166;28;19974;-74
2023/11/03 08:22:38;;;;;;;;;;;;;;;-144.99;91.11;52525.56;5109330;27;19981;-74
2023/11/03 08:25:07;;;;;;;;;;;;;;;-144.99;90.78;52537.78;5102028;28;19955;-74
2023/11/03 08:27:33;;;;;;;;;;;;;;;-144.99;90.68;52525.56;5100002;28;19971;-75
2023/11/03 08:30:00;;;;;;;;;;;;;;;-144.99;90.67;52517.41;5101645;28;20167;-72
2023/11/03 08:32:27;;;;;;;;;;;;;;;-144.99;90.48;52533.69;5106799;28;20010;-74
2023/11/03 08:34:53;;;;;;;;;;;;;;;-144.99;90.69;52570.38;5107115;28;20308;-73
2023/11/03 08:37:21;;;;;;;;;;;;;;;-144.99;90.58;52507.19;5106307;28;19932;-74
2023/11/03 08:39:47;;;;;;;;;;;;;;;-144.99;90.50;52505.16;5108786;28;19931;-74
2023/11/03 08:42:16;;;;;;;;;;;;;;;-144.99;90.37;52576.50;5111810;28;20134;-72
2023/11/03 08:44:44;;;;;;;;;;;;;;;-144.99;90.46;52554.09;5106301;28;20447;-72
2023/11/03 08:47:11;;;;;;;;;;;;;;;-144.99;90.74;52488.84;5106552;28;19927;-73
2023/11/03 08:49:37;;;;;;;;;;;;;;;-144.99;90.43;52558.16;5106968;28;19931;-72
2023/11/03 08:52:04;;;;;;;;;;;;;;;-144.99;90.86;52554.09;5098521;28;20046;-74
2023/11/03 08:54:30;;;;;;;;;;;;;;;-144.99;91.24;52537.78;5105607;28;20305;-74
2023/11/03 08:56:57;;;;;;;;;;;;;;;-144.99;91.34;52533.69;5104151;28;19924;-73
2023/11/03 08:59:25;;;;;;;;;;;;;;;-144.99;91.16;52541.84;5107463;28;19924;-74
2023/11/03 09:01:55;;;;;;;;;;;;;;;-144.99;91.31;52523.50;5106721;28;20069;-75
2023/11/03 09:04:22;;;;;;;;;;;;;;;-144.99;91.11;52586.69;5101333;28;20436;-74
2023/11/03 09:06:48;;;;;;;;;;;;;;;-144.99;91.22;52531.66;5097913;28;19927;-73
2023/11/03 09:09:15;;;;;;;;;;;;;;;-144.99;90.95;52541.84;5097712;28;20463;-73
2023/11/03 09:11:42;;;;;;;;;;;;;;;-144.99;91.40;52509.25;5096794;28;19974;-74
2023/11/03 09:14:09;;;;;;;;;;;;;;;-144.99;91.09;52525.56;5105508;27;19934;-73
2023/11/03 09:16:37;;;;;;;;;;;;;;;-144.99;91.10;52562.25;5105199;27;20635;-73
2023/11/03 09:19:04;;;;;;;;;;;;;;;-144.99;91.51;52533.69;5109269;27;19927;-74
2023/11/03 09:21:30;;;;;;;;;;;;;;;-144.99;91.30;52537.78;5111568;28;19931;-73
2023/11/03 09:23:58;;;;;;;;;;;;;;;-144.99;91.85;52541.84;5107829;27;19931;-71
2023/11/03 09:26:25;;;;;;;;;;;;;;;-144.99;91.86;52566.31;5108787;27;19934;-72
2023/11/03 09:28:51;;;;;;;;;;;;;;;-144.99;92.14;52525.56;5110685;28;19924;-73
2023/11/03 09:31:18;;;;;;;;;;;;;;;-144.99;91.97;52564.28;5109824;28;20027;-72
2023/11/03 09:33:47;;;;;;;;;;;;;;;-144.99;92.57;52521.47;5108763;27;20156;-73
2023/11/03 09:36:14;;;;;;;;;;;;;;;-144.99;92.12;52515.34;5107573;27;20309;-75
2023/11/03 09:38:42;;;;;;;;;;;;;;;-144.99;91.95;52539.81;5109922;28;19935;-72
2023/11/03 09:41:08;;;;;;;;;;;;;;;-144.99;92.00;52572.44;5109967;28;20739;-74
2023/11/03 09:43:35;;;;;;;;;;;;;;;-144.99;92.33;52552.03;5107728;28;20018;-73
2023/11/03 09:46:02;;;;;;;;;;;;;;;-144.99;92.79;52509.25;5106761;27;19970;-78
2023/11/03 09:48:29;;;;;;;;;;;;;;;-144.99;92.25;52541.84;5115231;27;19939;-74
2023/11/03 09:50:57;;;;;;;;;;;;;;;-144.99;92.00;52521.47;5116480;28;19924;-76
2023/11/03 09:53:25;;;;;;;;;;;;;;;-144.99;91.91;52525.56;5109817;28;20382;-75
2023/11/03 09:55:52;;;;;;;;;;;;;;;-144.99;91.89;52521.47;5104906;27;19928;-73
2023/11/03 09:58:18;;;;;;;;;;;;;;;-144.99;91.78;52550.00;5107106;27;20480;-73
2023/11/03 10:00:45;;;;;;;;;;;;;;;-144.99;92.10;52517.41;5111742;28;20101;-73
2023/11/03 10:03:12;;;;;;;;;;;;;;;-144.99;92.23;52533.69;5125799;28;19935;-74
2023/11/03 10:05:38;;;;;;;;;;;;;;;-144.99;92.00;52521.47;5102788;28;19970;-74
2023/11/03 10:08:08;;;;;;;;;;;;;;;-144.99;91.74;52541.84;5122297;27;19954;-75
2023/11/03 10:10:35;;;;;;;;;;;;;;;-144.99;92.16;52533.69;5119718;28;19931;-72
2023/11/03 10:13:04;;;;;;;;;;;;;;;-144.99;92.71;52505.16;5107015;28;20454;-73
2023/11/03 10:15:30;;;;;;;;;;;;;;;-144.99;92.63;52509.25;5105845;28;19942;-73
2023/11/03 10:17:57;;;;;;;;;;;;;;;-144.99;93.52;52554.09;5105585;27;19924;-74
2023/11/03 10:20:25;;;;;;;;;;;;;;;-144.99;93.71;52497.00;5109211;28;20011;-74
2023/11/03 10:22:51;;;;;;;;;;;;;;;-144.99;93.51;52517.41;5109221;27;19923;-74
2023/11/03 10:25:19;;;;;;;;;;;;;;;-144.99;93.55;52539.81;5100667;28;20023;-74
2023/11/03 10:27:46;;;;;;;;;;;;;;;-144.99;93.97;52539.81;5105581;27;20615;-76
2023/11/03 10:30:15;;;;;;;;;;;;;;;-144.99;94.70;52550.00;5107800;27;19927;-77
2023/11/03 10:32:43;;;;;;;;;;;;;;;-144.99;94.54;52554.09;5108409;28;19932;-74
2023/11/03 10:35:11;;;;;;;;;;;;;;;-144.99;95.22;52533.69;5108393;28;19924;-73
2023/11/03 10:37:38;;;;;;;;;;;;;;;-144.99;95.30;52517.41;5088566;27;19928;-73
2023/11/03 10:40:05;;;;;;;;;;;;;;;-144.99;95.46;52543.91;5105745;27;19936;-74
2023/11/03 10:42:36;;;;;;;;;;;;;;;-144.99;96.03;52517.41;5110171;28;20042;-75
2023/11/03 10:45:04;;;;;;;;;;;;;;;-144.99;96.29;52541.84;5108313;28;19974;-75
2023/11/03 10:47:32;;;;;;;;;;;;;;;-144.99;96.39;52529.63;5109061;27;20387;-75
2023/11/03 10:50:05;;;;;;;;;;;;;;;-144.99;96.52;52527.59;5104598;27;20302;-72
2023/11/03 10:52:41;;;;;;;;;;;;;;;-144.99;96.77;52521.47;5107295;27;19928;-74
2023/11/03 10:55:11;;;;;;;;;;;;;;;-144.99;96.74;52531.66;5108984;28;20012;-74
2023/11/03 10:57:38;;;;;;;;;;;;;;;-144.99;96.90;52513.31;5108904;27;19927;-73
2023/11/03 11:00:10;;;;;;;;;;;;;;;-144.99;97.00;52521.47;5106153;27;20285;-76
2023/11/03 11:02:41;;;;;;;;;;;;;;;-144.99;96.88;52529.63;5108308;27;19970;-72
2023/11/03 11:05:14;;;;;;;;;;;;;;;-144.99;97.59;52541.84;5090753;28;19936;-76
2023/11/03 11:07:42;;;;;;;;;;;;;;;-144.99;97.27;52558.16;5105129;28;19935;-75
2023/11/03 11:10:09;;;;;;;;;;;;;;;-144.99;97.13;52513.31;5108880;27;20019;-74
2023/11/03 11:12:50;;;;;;;;;;;;;;;-144.99;96.68;52497.00;5105809;27;19934;-75
2023/11/03 11:15:19;;;;;;;;;;;;;;;-144.99;95.11;52444.03;5108333;28;19955;-74
2023/11/03 11:17:46;;;;;;;;;;;;;;;-144.99;94.01;52468.47;5108924;27;19934;-74
2023/11/03 11:20:16;;;;;;;;;;;;;;;-144.99;94.03;52499.06;5108336;28;19928;-76
2023/11/03 11:22:47;;;;;;;;;;;;;;;-144.99;94.13;52492.94;5102045;27;19927;-75
2023/11/03 11:25:13;;;;;;;;;;;;;;;-144.99;93.57;52488.84;5110590;28;19938;-77
2023/11/03 11:27:43;;;;;;;;;;;;;;;-144.99;91.63;52427.72;5107782;27;19927;-76
2023/11/03 11:30:14;;;;;;;;;;;;;;;-144.99;87.97;52350.25;5092309;28;19934;-75
2023/11/03 11:32:45;;;;;;;;;;;;;;;-144.99;84.65;52250.38;5109900;28;20766;-74
2023/11/03 11:35:12;;;;;;;;;;;;;;;-144.99;81.61;52391.03;5111595;28;20318;-75
2023/11/03 11:37:39;;;;;;;;;;;;;;;-144.99;80.63;52462.34;5113751;27;19928;-76
2023/11/03 11:40:08;;;;;;;;;;;;;;;-144.99;83.29;52452.16;5113897;27;20098;-75
2023/11/03 11:42:36;;;;;;;;;;;;;;;-144.99;85.04;52460.31;5111891;27;19938;-75
2023/11/03 11:45:04;;;;;;;;;;;;;;;-144.99;85.38;52476.63;5106377;28;19973;-75
2023/11/03 11:47:32;;;;;;;;;;;;;;;-144.99;86.67;52499.06;5103944;27;19928;-74
2023/11/03 11:49:59;;;;;;;;;;;;;;;-144.99;88.60;52533.69;5102485;27;20023;-74
2023/11/03 11:52:26;;;;;;;;;;;;;;;-144.99;90.04;52529.63;5087824;28;20341;-74
2023/11/03 11:54:53;;;;;;;;;;;;;;;-144.99;91.33;52541.84;5101943;28;20391;-74
2023/11/03 11:57:20;;;;;;;;;;;;;;;-144.99;92.31;52513.31;5101792;28;19971;-77
2023/11/03 11:59:50;;;;;;;;;;;;;;;-144.99;93.15;52529.63;5109078;27;19928;-73
2023/11/03 12:02:17;;;;;;;;;;;;;;;-144.99;93.61;52517.41;5103962;27;19932;-74
2023/11/03 12:04:47;;;;;;;;;;;;;;;-144.99;94.58;52582.63;5102993;28;19979;-73
2023/11/03 12:07:14;;;;;;;;;;;;;;;-144.99;94.74;52558.16;5110440;28;19980;-75
2023/11/03 12:09:41;;;;;;;;;;;;;;;-144.99;95.19;52505.16;5093122;28;20007;-75
2023/11/03 12:12:08;;;;;;;;;;;;;;;-144.99;95.40;52521.47;5109420;27;19976;-76
2023/11/03 12:14:36;;;;;;;;;;;;;;;-144.99;95.97;52519.44;5109987;27;19927;-75
2023/11/03 12:17:02;;;;;;;;;;;;;;;-144.99;95.56;52521.47;5109884;27;20019;-75
2023/11/03 12:19:29;;;;;;;;;;;;;;;-144.99;95.52;52545.94;5111682;28;19928;-76
2023/11/03 12:21:56;;;;;;;;;;;;;;;-144.99;95.99;52537.78;5112485;28;19987;-76
2023/11/03 12:24:23;;;;;;;;;;;;;;;-144.99;95.84;52537.78;5090123;28;20010;-75